Time;durP1;ratioP1;P1;durP2;ratioP2;P2;SDS_P1;SDS_P2;PMS_P1;PMS_P2;Temp;Humidity;BMP_temperature;BMP_pressure;BME280_temperature;BME280_humidity;BME280_pressure;Samples;Min_cycle;Max_cycle;Signal;HPM_P1;HPM_P2
2022/01/30 00:00:23;;;;;;;39.33;5.97;;;8.00;99.90;;;;;;5089011;27;38065;-76
2022/01/30 00:02:51;;;;;;;38.13;5.73;;;8.00;99.90;;;;;;5090311;28;36971;-78
2022/01/30 00:05:18;;;;;;;33.90;5.30;;;8.00;99.90;;;;;;5092344;27;39480;-76
2022/01/30 00:07:45;;;;;;;29.60;4.87;;;8.10;99.90;;;;;;5092128;28;37758;-76
2022/01/30 00:10:13;;;;;;;28.13;4.70;;;8.00;99.90;;;;;;5092258;27;38492;-77
2022/01/30 00:12:51;;;;;;;30.63;4.40;;;8.00;99.90;;;;;;5089246;27;37716;-76
2022/01/30 00:15:19;;;;;;;28.17;4.83;;;7.90;99.90;;;;;;5089667;27;37935;-76
2022/01/30 00:17:53;;;;;;;31.07;4.87;;;7.90;99.90;;;;;;5093084;27;39417;-76
2022/01/30 00:20:23;;;;;;;28.70;4.20;;;7.90;99.90;;;;;;5091939;28;42099;-76
2022/01/30 00:23:06;;;;;;;34.50;4.50;;;7.90;99.90;;;;;;5090876;28;36378;-76
2022/01/30 00:25:44;;;;;;;;;;;7.80;99.90;;;;;;5091056;27;48680;-77
2022/01/30 00:28:12;;;;;;;31.33;4.70;;;7.90;99.90;;;;;;5089549;27;40159;-76
2022/01/30 00:30:38;;;;;;;32.57;5.53;;;7.90;99.90;;;;;;5089967;27;38577;-76
2022/01/30 00:33:05;;;;;;;28.63;4.67;;;7.80;99.90;;;;;;5090826;28;37678;-76
2022/01/30 00:35:38;;;;;;;32.63;5.27;;;7.80;99.90;;;;;;5088856;28;38506;-76
2022/01/30 00:38:15;;;;;;;25.27;4.97;;;7.70;99.90;;;;;;5090761;27;37648;-76
2022/01/30 00:40:46;;;;;;;34.27;5.00;;;7.70;99.90;;;;;;5088975;28;38893;-76
2022/01/30 00:43:13;;;;;;;33.00;5.77;;;7.70;99.90;;;;;;5086750;28;36309;-76
2022/01/30 00:45:39;;;;;;;28.43;6.10;;;7.70;99.90;;;;;;5083431;28;37913;-76
2022/01/30 00:48:05;;;;;;;39.97;6.10;;;7.70;99.90;;;;;;5099848;27;40100;-77
2022/01/30 00:50:32;;;;;;;32.33;5.47;;;7.70;99.90;;;;;;5089199;28;39716;-76
2022/01/30 00:52:58;;;;;;;30.60;4.83;;;7.80;99.90;;;;;;5093137;27;37746;-76
2022/01/30 00:55:26;;;;;;;30.13;5.00;;;7.80;99.90;;;;;;5087891;27;40499;-78
2022/01/30 00:57:56;;;;;;;32.57;4.97;;;7.70;99.90;;;;;;5106297;27;38626;-76
2022/01/30 01:00:23;;;;;;;31.40;5.23;;;7.70;99.90;;;;;;5083414;28;37772;-76
2022/01/30 01:02:50;;;;;;;24.27;4.53;;;7.70;99.90;;;;;;5090378;27;36845;-76
2022/01/30 01:05:17;;;;;;;27.70;4.87;;;7.60;99.90;;;;;;5087113;27;37518;-76
2022/01/30 01:07:48;;;;;;;35.97;5.03;;;7.60;99.90;;;;;;5089462;27;38912;-77
2022/01/30 01:10:28;;;;;;;38.57;6.17;;;7.50;99.90;;;;;;5088215;27;38798;-76
2022/01/30 01:13:09;;;;;;;31.57;5.73;;;7.60;99.90;;;;;;5089623;28;36963;-76
2022/01/30 01:23:53;;;;;;;37.90;5.37;;;7.60;99.90;;;;;;5077867;28;37515;-77
2022/01/30 01:26:21;;;;;;;39.50;7.00;;;7.60;99.90;;;;;;5081467;27;39285;-77
2022/01/30 01:28:48;;;;;;;35.33;5.43;;;7.60;99.90;;;;;;5079430;27;38276;-77
2022/01/30 01:31:14;;;;;;;37.10;6.63;;;7.60;99.90;;;;;;5078840;27;36626;-77
2022/01/30 01:36:10;;;;;;;28.37;4.87;;;7.60;99.90;;;;;;5082796;27;38726;-76
2022/01/30 01:38:36;;;;;;;36.13;5.80;;;7.60;99.90;;;;;;5081988;28;37326;-76
2022/01/30 01:41:02;;;;;;;41.07;6.13;;;7.50;99.90;;;;;;5081498;27;39853;-77
2022/01/30 01:43:28;;;;;;;28.23;5.37;;;7.50;99.90;;;;;;5081077;28;37428;-76
2022/01/30 01:45:57;;;;;;;34.13;5.57;;;7.60;99.90;;;;;;5079786;28;38887;-77
2022/01/30 01:48:23;;;;;;;41.97;6.00;;;7.50;99.90;;;;;;5081137;27;39229;-76
2022/01/30 01:50:54;;;;;;;29.17;5.57;;;7.50;99.90;;;;;;5084179;27;37602;-76
2022/01/30 01:53:25;;;;;;;35.70;5.83;;;7.50;99.90;;;;;;5082855;27;37293;-76
2022/01/30 01:55:52;;;;;;;26.73;4.80;;;7.40;99.90;;;;;;5102671;27;39641;-76
2022/01/30 01:58:18;;;;;;;45.37;5.47;;;7.40;99.90;;;;;;5082693;28;40398;-76
2022/01/30 02:00:44;;;;;;;32.40;6.97;;;7.50;99.90;;;;;;5075168;28;38767;-76
2022/01/30 02:03:10;;;;;;;40.17;8.00;;;7.40;99.90;;;;;;5079943;27;38605;-76
2022/01/30 02:05:39;;;;;;;32.87;4.77;;;7.50;99.90;;;;;;5078119;27;39450;-76
2022/01/30 02:11:09;;;;;;;38.90;4.67;;;7.40;99.90;;;;;;5082003;27;37094;-76
2022/01/30 02:14:01;;;;;;;32.63;5.53;;;7.40;99.90;;;;;;5082548;27;48491;-76
2022/01/30 02:24:48;;;;;;;31.23;4.40;;;7.30;99.90;;;;;;5083584;27;49252;-76
2022/01/30 02:27:18;;;;;;;42.83;4.47;;;7.30;99.90;;;;;;5080110;27;38716;-76
2022/01/30 02:29:45;;;;;;;43.83;6.10;;;7.40;99.90;;;;;;5081241;28;37671;-76
2022/01/30 02:32:11;;;;;;;27.33;4.10;;;7.30;99.90;;;;;;5078203;27;37103;-76
2022/01/30 02:34:38;;;;;;;22.53;4.40;;;7.20;99.90;;;;;;5093484;27;36482;-76
2022/01/30 02:37:05;;;;;;;27.57;4.33;;;7.30;99.90;;;;;;5077454;28;36422;-76
2022/01/30 02:39:31;;;;;;;29.73;5.03;;;7.30;99.90;;;;;;5081725;28;37986;-76
2022/01/30 02:41:58;;;;;;;28.67;4.47;;;7.20;99.90;;;;;;5079510;27;38203;-76
2022/01/30 02:44:46;;;;;;;26.63;4.23;;;7.20;99.90;;;;;;5080206;28;36456;-76
2022/01/30 02:50:14;;;;;;;23.57;3.93;;;7.20;99.90;;;;;;5081037;27;38791;-76
2022/01/30 02:52:43;;;;;;;29.07;3.80;;;7.20;99.90;;;;;;5067184;28;47862;-77
2022/01/30 02:55:11;;;;;;;16.43;3.10;;;7.30;99.90;;;;;;5078171;27;35916;-77
2022/01/30 02:57:37;;;;;;;24.50;4.07;;;7.30;99.90;;;;;;5081040;28;36294;-76
2022/01/30 03:00:06;;;;;;;16.17;3.37;;;7.40;99.90;;;;;;5078462;27;38518;-76
2022/01/30 03:02:32;;;;;;;20.60;3.80;;;7.40;99.90;;;;;;5080449;28;47502;-76
2022/01/30 03:04:58;;;;;;;22.97;4.03;;;7.30;99.90;;;;;;5081636;27;37534;-76
2022/01/30 03:07:24;;;;;;;33.63;5.10;;;7.30;99.90;;;;;;5085471;27;39086;-77
2022/01/30 03:09:50;;;;;;;26.47;4.80;;;7.30;99.90;;;;;;5082653;28;37260;-76
2022/01/30 03:12:17;;;;;;;26.60;4.40;;;7.40;99.90;;;;;;5080559;28;38626;-76
2022/01/30 03:14:43;;;;;;;20.07;3.23;;;7.50;99.90;;;;;;5082059;28;36127;-77
2022/01/30 03:17:09;;;;;;;29.93;4.57;;;7.50;99.90;;;;;;5077431;28;37560;-76
2022/01/30 03:19:35;;;;;;;31.17;4.53;;;7.50;99.90;;;;;;5082893;27;38331;-76
2022/01/30 03:22:01;;;;;;;22.23;4.17;;;7.60;99.90;;;;;;5079018;27;37981;-77
2022/01/30 03:24:34;;;;;;;27.43;4.47;;;7.60;99.90;;;;;;5080648;28;37155;-76
2022/01/30 03:27:01;;;;;;;31.00;4.90;;;7.60;99.90;;;;;;5082432;28;39572;-77
2022/01/30 03:29:27;;;;;;;24.67;4.43;;;7.50;99.90;;;;;;5082969;27;49190;-79
2022/01/30 03:31:53;;;;;;;21.47;4.40;;;7.60;99.90;;;;;;5081330;27;38140;-76
2022/01/30 03:34:19;;;;;;;24.73;4.50;;;7.70;99.90;;;;;;5082581;27;39656;-77
2022/01/30 03:36:45;;;;;;;23.77;4.47;;;7.70;99.90;;;;;;5080430;28;38936;-76
2022/01/30 03:39:11;;;;;;;24.93;4.47;;;7.70;99.90;;;;;;5081464;28;36632;-75
2022/01/30 03:41:37;;;;;;;29.17;4.07;;;7.80;99.90;;;;;;5080879;27;37991;-76
2022/01/30 03:44:04;;;;;;;21.27;3.50;;;7.90;99.90;;;;;;5078388;27;37772;-76
2022/01/30 03:46:30;;;;;;;22.80;3.47;;;8.00;99.90;;;;;;5080902;28;38212;-77
2022/01/30 03:48:56;;;;;;;23.47;3.60;;;7.90;99.90;;;;;;5078224;28;39098;-75
2022/01/30 03:51:22;;;;;;;29.50;4.20;;;7.70;99.90;;;;;;5080072;27;38143;-77
2022/01/30 03:53:48;;;;;;;23.40;3.40;;;7.70;99.90;;;;;;5093037;27;38133;-77
2022/01/30 03:56:14;;;;;;;13.03;2.97;;;7.60;99.90;;;;;;5082127;27;38802;-77
2022/01/30 03:58:40;;;;;;;27.97;3.80;;;7.60;99.90;;;;;;5080401;27;39160;-76
2022/01/30 04:01:06;;;;;;;17.20;2.87;;;7.60;99.90;;;;;;5077345;27;39996;-77
2022/01/30 04:03:32;;;;;;;14.23;2.73;;;7.50;99.90;;;;;;5070684;28;36833;-76
2022/01/30 04:05:59;;;;;;;12.77;3.13;;;7.50;99.90;;;;;;5074274;27;39010;-76
2022/01/30 04:08:25;;;;;;;18.60;3.50;;;7.50;99.90;;;;;;5075076;27;37176;-77
2022/01/30 04:10:51;;;;;;;20.77;3.23;;;7.50;99.90;;;;;;5076438;28;38384;-76
2022/01/30 04:13:18;;;;;;;21.03;5.23;;;7.50;99.90;;;;;;5072474;28;37176;-76
2022/01/30 04:15:44;;;;;;;20.50;4.03;;;7.50;99.90;;;;;;5077018;28;39916;-76
2022/01/30 04:18:10;;;;;;;21.10;3.80;;;7.50;99.90;;;;;;5073191;27;38669;-76
2022/01/30 04:20:37;;;;;;;24.03;3.30;;;7.60;99.90;;;;;;5077593;27;37576;-76
2022/01/30 04:23:03;;;;;;;25.20;4.33;;;7.60;99.90;;;;;;5079180;27;37033;-76
2022/01/30 04:25:29;;;;;;;27.33;3.97;;;7.80;99.90;;;;;;5077768;27;39099;-76
2022/01/30 04:27:55;;;;;;;25.80;4.60;;;7.80;99.90;;;;;;5077486;28;38821;-76
2022/01/30 04:30:22;;;;;;;12.57;2.93;;;7.80;99.90;;;;;;5074491;27;38823;-76
2022/01/30 04:32:49;;;;;;;22.63;3.30;;;7.80;99.90;;;;;;5077930;28;38223;-76
2022/01/30 04:35:27;;;;;;;18.37;3.03;;;7.70;99.90;;;;;;5078870;27;39778;-76
2022/01/30 04:38:53;;;;;;;23.03;2.43;;;7.60;99.90;;;;;;5079728;27;38518;-77
2022/01/30 04:57:36;;;;;;;25.87;3.93;;;7.20;99.90;;;;;;5081535;27;39229;-77
2022/01/30 05:07:48;;;;;;;16.80;2.70;;;6.90;99.90;;;;;;5087191;27;38626;-76
2022/01/30 05:10:15;;;;;;;25.83;3.80;;;6.80;99.90;;;;;;5076984;27;38492;-76
2022/01/30 05:12:54;;;;;;;28.07;4.67;;;6.80;99.90;;;;;;5081523;28;38201;-76
2022/01/30 05:15:21;;;;;;;20.63;3.50;;;6.90;99.90;;;;;;5079388;27;37820;-76
2022/01/30 05:17:48;;;;;;;23.60;3.43;;;6.90;99.90;;;;;;5080752;28;39636;-76
2022/01/30 05:20:14;;;;;;;19.40;3.20;;;6.90;99.90;;;;;;5081335;27;39792;-76
2022/01/30 05:22:41;;;;;;;26.47;4.57;;;6.80;99.90;;;;;;5083235;28;40407;-76
2022/01/30 05:25:07;;;;;;;21.80;3.70;;;6.80;99.90;;;;;;5076180;27;37691;-76
2022/01/30 05:27:34;;;;;;;27.60;3.90;;;6.70;99.90;;;;;;5078035;28;39480;-77
2022/01/30 05:30:00;;;;;;;21.73;3.13;;;6.70;99.90;;;;;;5079163;27;38482;-76
2022/01/30 05:32:26;;;;;;;20.77;3.43;;;6.60;99.90;;;;;;5077606;28;39131;-76
2022/01/30 05:34:54;;;;;;;19.63;2.73;;;6.70;99.90;;;;;;5078882;27;36406;-76
2022/01/30 05:37:21;;;;;;;22.30;3.40;;;6.70;99.90;;;;;;5088156;28;39394;-77
2022/01/30 05:39:47;;;;;;;20.77;3.40;;;6.70;99.90;;;;;;5077387;27;38225;-76
2022/01/30 05:42:14;;;;;;;24.63;2.70;;;6.80;99.90;;;;;;5076535;27;39099;-76
2022/01/30 05:47:22;;;;;;;26.45;4.80;;;6.80;99.90;;;;;;5075616;27;40585;-76
2022/01/30 05:49:49;;;;;;;18.73;3.47;;;6.70;99.90;;;;;;5077271;28;39384;-77
2022/01/30 05:52:15;;;;;;;21.33;3.13;;;6.70;99.90;;;;;;5075754;27;36169;-76
2022/01/30 05:54:42;;;;;;;20.10;4.13;;;6.70;99.90;;;;;;5083116;28;37640;-76
2022/01/30 05:57:08;;;;;;;19.57;3.40;;;6.80;99.90;;;;;;5080198;27;37442;-76
2022/01/30 05:59:34;;;;;;;19.70;3.50;;;6.70;99.90;;;;;;5076496;28;40116;-76
2022/01/30 06:02:00;;;;;;;23.80;4.67;;;6.80;99.90;;;;;;5075252;27;38447;-76
2022/01/30 06:04:26;;;;;;;18.20;3.43;;;6.90;99.90;;;;;;5073596;28;46832;-76
2022/01/30 06:06:55;;;;;;;18.93;3.43;;;6.90;99.90;;;;;;5076359;27;38842;-76
2022/01/30 06:09:21;;;;;;;20.30;3.27;;;6.80;99.90;;;;;;5075927;27;40389;-76
2022/01/30 06:11:50;;;;;;;22.60;3.13;;;6.80;99.90;;;;;;5076101;27;38778;-76
2022/01/30 06:14:17;;;;;;;26.80;3.60;;;6.90;99.90;;;;;;5075215;27;37053;-76
2022/01/30 06:16:43;;;;;;;26.97;4.00;;;6.90;99.90;;;;;;5075337;27;37147;-76
2022/01/30 06:19:09;;;;;;;20.73;3.77;;;7.00;99.90;;;;;;5078673;28;39384;-76
2022/01/30 06:21:36;;;;;;;34.90;4.83;;;7.00;99.90;;;;;;5075794;27;38124;-76
2022/01/30 06:24:02;;;;;;;30.17;4.20;;;7.10;99.90;;;;;;5076763;27;38462;-77
2022/01/30 06:26:29;;;;;;;26.13;3.63;;;7.20;99.90;;;;;;5070507;27;39506;-76
2022/01/30 06:28:55;;;;;;;27.07;5.73;;;7.20;99.90;;;;;;5093187;27;38644;-76
2022/01/30 06:31:22;;;;;;;23.63;4.37;;;7.20;99.90;;;;;;5077933;28;39665;-76
2022/01/30 06:33:48;;;;;;;28.00;4.77;;;7.10;99.90;;;;;;5082006;27;36952;-76
2022/01/30 06:36:14;;;;;;;21.33;3.50;;;7.10;99.90;;;;;;5066861;27;38971;-77
2022/01/30 06:38:40;;;;;;;20.97;3.67;;;7.20;99.90;;;;;;5074767;28;38178;-77
2022/01/30 06:41:06;;;;;;;23.57;4.33;;;7.30;99.90;;;;;;5075785;27;37983;-77
2022/01/30 06:43:33;;;;;;;27.57;4.13;;;7.30;99.90;;;;;;5078808;27;38175;-76
2022/01/30 06:45:59;;;;;;;23.20;4.57;;;7.30;99.90;;;;;;5082226;27;38898;-77
2022/01/30 06:48:25;;;;;;;24.90;4.20;;;7.40;99.90;;;;;;5081904;27;38698;-77
2022/01/30 06:50:51;;;;;;;24.13;4.10;;;7.40;99.90;;;;;;5084455;27;39126;-76
2022/01/30 06:53:17;;;;;;;29.70;3.97;;;7.40;99.90;;;;;;5084844;27;36464;-77
2022/01/30 06:55:43;;;;;;;18.40;3.17;;;7.40;99.90;;;;;;5087681;27;39846;-77
2022/01/30 06:58:12;;;;;;;19.93;3.83;;;7.40;99.90;;;;;;5087453;27;38625;-76
2022/01/30 07:00:38;;;;;;;26.17;4.23;;;7.40;99.90;;;;;;5086887;28;38528;-76
2022/01/30 07:03:04;;;;;;;22.50;3.63;;;7.50;99.90;;;;;;5086181;27;37297;-77
2022/01/30 07:05:32;;;;;;;24.73;3.90;;;7.50;99.90;;;;;;5087632;28;37723;-76
2022/01/30 07:07:58;;;;;;;26.03;3.90;;;7.40;99.90;;;;;;5089320;28;38431;-77
2022/01/30 07:10:24;;;;;;;28.10;4.33;;;7.40;99.90;;;;;;5102141;27;36841;-77
2022/01/30 07:12:50;;;;;;;35.13;4.63;;;7.50;99.90;;;;;;5087042;28;37491;-77
2022/01/30 07:15:16;;;;;;;24.00;4.70;;;7.40;99.90;;;;;;5085198;27;39009;-77
2022/01/30 07:17:43;;;;;;;32.13;4.27;;;7.50;99.90;;;;;;5082295;27;38943;-76
2022/01/30 07:20:10;;;;;;;32.10;3.70;;;7.50;99.90;;;;;;5077463;27;36979;-76
2022/01/30 07:22:36;;;;;;;25.00;3.50;;;7.50;99.90;;;;;;5078497;27;34987;-76
2022/01/30 07:25:06;;;;;;;30.53;4.87;;;7.40;99.90;;;;;;5077489;27;39203;-77
2022/01/30 07:27:32;;;;;;;23.93;3.33;;;7.40;99.90;;;;;;5076666;28;47196;-76
2022/01/30 07:29:58;;;;;;;29.77;4.27;;;7.30;99.90;;;;;;5076891;28;39996;-76
2022/01/30 07:32:24;;;;;;;27.37;4.23;;;7.20;99.90;;;;;;5076813;27;37377;-76
2022/01/30 07:34:51;;;;;;;25.53;4.07;;;7.20;99.90;;;;;;5077151;28;39083;-76
2022/01/30 07:37:19;;;;;;;32.57;5.23;;;7.10;99.90;;;;;;5073514;27;38354;-76
2022/01/30 07:39:45;;;;;;;28.43;3.97;;;7.00;99.90;;;;;;5078360;27;37509;-76
2022/01/30 07:42:12;;;;;;;29.10;6.33;;;6.90;99.90;;;;;;5077342;28;36158;-77
2022/01/30 07:44:38;;;;;;;35.33;6.10;;;6.80;99.90;;;;;;5076123;27;38952;-76
2022/01/30 07:47:05;;;;;;;27.10;4.00;;;6.80;99.90;;;;;;5080084;28;38243;-76
2022/01/30 07:49:31;;;;;;;27.30;4.10;;;6.80;99.90;;;;;;5081707;27;38061;-75
2022/01/30 07:51:57;;;;;;;23.70;3.53;;;6.80;99.90;;;;;;5080297;28;35769;-75
2022/01/30 07:54:23;;;;;;;32.77;4.50;;;6.80;99.90;;;;;;5080684;28;36844;-77
2022/01/30 07:56:49;;;;;;;32.93;4.73;;;6.70;99.90;;;;;;5077264;27;37875;-76
2022/01/30 07:59:15;;;;;;;38.07;5.03;;;6.70;99.90;;;;;;5074095;27;37917;-75
2022/01/30 08:01:41;;;;;;;30.40;4.03;;;6.70;99.90;;;;;;5078741;28;37633;-77
2022/01/30 08:04:08;;;;;;;36.30;5.73;;;6.70;99.90;;;;;;5081159;27;40356;-76
2022/01/30 08:06:35;;;;;;;33.43;4.53;;;6.70;99.90;;;;;;5083625;27;39188;-75
2022/01/30 08:09:02;;;;;;;23.10;4.67;;;6.70;99.90;;;;;;5079274;28;39694;-76
2022/01/30 08:11:28;;;;;;;28.83;5.17;;;6.70;99.90;;;;;;5077054;27;48704;-76
2022/01/30 08:13:55;;;;;;;34.03;4.97;;;6.70;99.90;;;;;;5098095;27;38979;-76
2022/01/30 08:16:23;;;;;;;35.93;5.33;;;6.70;99.90;;;;;;5079456;28;37207;-76
2022/01/30 08:18:49;;;;;;;35.20;4.70;;;6.80;99.90;;;;;;5081771;27;38335;-75
2022/01/30 08:21:15;;;;;;;25.10;4.33;;;6.80;99.90;;;;;;5076685;27;34893;-76
2022/01/30 08:23:41;;;;;;;26.03;5.17;;;6.90;99.90;;;;;;5076586;27;38981;-76
2022/01/30 08:26:07;;;;;;;29.90;4.53;;;6.90;99.90;;;;;;5081898;27;38864;-76
2022/01/30 08:28:33;;;;;;;30.10;4.17;;;7.00;99.90;;;;;;5081521;28;38135;-78
2022/01/30 08:31:00;;;;;;;36.77;6.50;;;7.10;99.90;;;;;;5081977;27;36912;-76
2022/01/30 08:33:26;;;;;;;35.87;5.33;;;7.10;99.90;;;;;;5076075;27;37262;-76
2022/01/30 08:35:53;;;;;;;28.40;4.83;;;7.20;99.90;;;;;;5074934;27;38625;-76
2022/01/30 08:38:20;;;;;;;35.97;5.63;;;7.20;99.90;;;;;;5077720;27;38225;-74
2022/01/30 08:40:47;;;;;;;31.53;4.53;;;7.30;99.90;;;;;;5075657;28;37698;-74
2022/01/30 08:43:13;;;;;;;26.93;4.70;;;7.30;99.90;;;;;;5076867;27;39381;-75
2022/01/30 08:45:40;;;;;;;33.10;4.93;;;7.40;99.90;;;;;;5074982;28;39533;-74
2022/01/30 08:48:06;;;;;;;35.57;4.57;;;7.50;99.90;;;;;;5076632;27;38396;-75
2022/01/30 08:50:32;;;;;;;33.13;5.23;;;7.60;99.90;;;;;;5079872;27;36709;-74
2022/01/30 08:52:59;;;;;;;27.37;5.30;;;7.60;99.90;;;;;;5074617;28;39914;-74
2022/01/30 08:55:29;;;;;;;33.10;4.37;;;7.60;99.90;;;;;;5072820;27;38450;-74
2022/01/30 08:57:57;;;;;;;37.77;5.83;;;7.60;99.90;;;;;;5079866;28;35871;-74
2022/01/30 09:00:23;;;;;;;32.57;4.60;;;7.70;99.90;;;;;;5076546;27;35543;-74
2022/01/30 09:02:50;;;;;;;30.83;4.60;;;7.70;99.90;;;;;;5076289;27;38488;-74
2022/01/30 09:05:16;;;;;;;22.97;4.43;;;7.70;99.90;;;;;;5079737;27;40011;-74
2022/01/30 09:07:43;;;;;;;32.53;4.57;;;7.80;99.90;;;;;;5082937;27;37777;-73
2022/01/30 09:10:12;;;;;;;30.07;4.80;;;7.80;99.90;;;;;;5083166;27;37333;-74
2022/01/30 09:12:38;;;;;;;34.13;4.50;;;7.70;99.90;;;;;;5083526;28;40230;-74
2022/01/30 09:15:06;;;;;;;26.07;4.53;;;7.80;99.90;;;;;;5083935;27;38520;-75
2022/01/30 09:17:32;;;;;;;32.10;5.00;;;7.80;99.90;;;;;;5075006;27;37546;-73
2022/01/30 09:19:59;;;;;;;25.83;4.47;;;7.90;99.90;;;;;;5077395;27;37561;-74
2022/01/30 09:22:25;;;;;;;22.43;4.90;;;7.90;99.90;;;;;;5073415;27;37757;-74
2022/01/30 09:24:51;;;;;;;29.23;5.77;;;7.90;99.90;;;;;;5080348;28;38633;-74
2022/01/30 09:27:17;;;;;;;25.77;4.43;;;8.00;99.90;;;;;;5076308;27;38132;-74
2022/01/30 09:29:45;;;;;;;27.07;4.47;;;8.10;99.90;;;;;;5077576;28;38878;-74
2022/01/30 09:32:12;;;;;;;30.53;4.43;;;8.10;99.90;;;;;;5077405;27;39380;-75
2022/01/30 09:34:38;;;;;;;28.63;4.20;;;8.10;99.90;;;;;;5079099;28;37265;-75
2022/01/30 09:37:06;;;;;;;33.57;4.80;;;8.00;99.90;;;;;;5075764;27;38788;-75
2022/01/30 09:39:32;;;;;;;30.20;4.07;;;8.00;99.90;;;;;;5078959;28;41641;-75
2022/01/30 09:41:59;;;;;;;23.50;4.03;;;8.00;99.90;;;;;;5082216;27;39821;-76
2022/01/30 09:44:26;;;;;;;26.80;4.47;;;8.10;99.90;;;;;;5080676;27;38568;-75
2022/01/30 09:46:52;;;;;;;20.23;4.10;;;8.10;99.90;;;;;;5080426;28;38336;-75
2022/01/30 09:49:26;;;;;;;31.30;4.40;;;8.10;99.90;;;;;;5077010;28;35931;-74
2022/01/30 09:51:53;;;;;;;21.83;4.20;;;8.10;99.90;;;;;;5079581;28;37549;-75
2022/01/30 09:54:20;;;;;;;27.73;4.53;;;8.10;99.90;;;;;;5079487;27;37596;-75
2022/01/30 09:56:47;;;;;;;37.17;5.70;;;8.20;99.90;;;;;;5080580;28;37048;-75
2022/01/30 09:59:13;;;;;;;19.47;4.03;;;8.20;99.90;;;;;;5082514;27;36830;-75
2022/01/30 10:01:39;;;;;;;30.27;4.67;;;8.30;99.90;;;;;;5078083;28;38167;-74
2022/01/30 10:04:06;;;;;;;21.33;4.43;;;8.40;99.90;;;;;;5079041;28;38681;-75
2022/01/30 10:06:55;;;;;;;26.10;3.97;;;8.40;99.90;;;;;;5080785;27;37992;-74
2022/01/30 10:09:31;;;;;;;20.87;4.43;;;8.40;99.90;;;;;;5078145;28;36116;-75
2022/01/30 10:12:15;;;;;;;26.57;3.80;;;8.50;99.90;;;;;;5098113;27;40592;-74
2022/01/30 10:14:51;;;;;;;30.33;4.47;;;8.70;99.90;;;;;;5074336;28;49103;-74
2022/01/30 10:17:36;;;;;;;23.83;4.03;;;8.90;99.90;;;;;;5077748;28;37239;-75
2022/01/30 10:20:09;;;;;;;24.73;4.03;;;8.90;99.90;;;;;;5074383;27;35904;-75
2022/01/30 10:22:57;;;;;;;28.77;5.07;;;8.80;99.90;;;;;;5049385;28;48038;-74
2022/01/30 10:25:26;;;;;;;26.90;4.13;;;8.90;99.90;;;;;;5077047;27;38191;-75
2022/01/30 10:28:21;;;;;;;34.43;6.00;;;8.90;99.90;;;;;;5077130;27;37577;-75
2022/01/30 10:30:51;;;;;;;28.10;4.83;;;8.90;99.90;;;;;;5078281;28;47122;-74
2022/01/30 10:33:19;;;;;;;28.17;4.53;;;8.80;99.90;;;;;;5081232;28;40682;-74
2022/01/30 10:35:47;;;;;;;31.37;4.40;;;8.80;99.90;;;;;;5077090;27;39449;-75
2022/01/30 10:38:38;;;;;;;35.43;5.53;;;8.70;99.90;;;;;;5079149;28;38538;-76
2022/01/30 10:41:21;;;;;;;27.47;4.47;;;8.70;99.90;;;;;;5076932;27;36619;-75
2022/01/30 10:43:49;;;;;;;;;;;8.60;99.90;;;;;;5079785;28;39515;-74
2022/01/30 10:46:19;;;;;;;23.23;4.20;;;8.50;99.90;;;;;;5078765;28;37668;-75
2022/01/30 10:49:03;;;;;;;27.13;4.47;;;8.50;99.90;;;;;;5073987;28;38057;-74
2022/01/30 10:51:32;;;;;;;22.57;4.20;;;8.60;99.90;;;;;;5074132;28;48233;-75
2022/01/30 10:54:08;;;;;;;28.30;4.53;;;8.90;99.90;;;;;;5073059;28;39193;-74
2022/01/30 10:56:37;;;;;;;25.00;3.87;;;9.10;99.90;;;;;;5077236;28;47641;-74
2022/01/30 10:59:22;;;;;;;27.57;4.13;;;9.30;99.90;;;;;;5076888;27;38060;-75
2022/01/30 11:01:50;;;;;;;31.20;4.40;;;9.40;99.90;;;;;;5075265;27;37194;-75
2022/01/30 11:04:28;;;;;;;22.30;4.63;;;9.30;99.90;;;;;;5082384;27;39199;-75
2022/01/30 11:06:58;;;;;;;23.90;4.10;;;9.20;99.90;;;;;;5081175;27;38264;-74
2022/01/30 11:09:27;;;;;;;26.03;4.20;;;9.10;99.90;;;;;;5081945;28;38119;-74
2022/01/30 11:12:00;;;;;;;18.57;3.67;;;9.10;99.90;;;;;;5081362;28;36198;-76
2022/01/30 11:14:40;;;;;;;25.83;4.30;;;9.10;99.90;;;;;;5084282;28;39251;-75
2022/01/30 11:17:09;;;;;;;28.93;3.83;;;9.00;99.90;;;;;;5080715;27;38517;-74
2022/01/30 11:19:38;;;;;;;17.87;4.07;;;8.80;99.90;;;;;;5083513;28;38869;-74
2022/01/30 11:22:10;;;;;;;19.33;4.60;;;8.70;99.90;;;;;;5081809;27;37200;-75
2022/01/30 11:24:45;;;;;;;22.17;4.20;;;8.80;99.90;;;;;;5082926;28;37578;-74
2022/01/30 11:27:13;;;;;;;20.23;4.20;;;8.80;99.90;;;;;;5080448;27;37626;-74
2022/01/30 11:29:39;;;;;;;20.57;3.90;;;9.00;99.90;;;;;;5082065;28;38074;-75
2022/01/30 11:32:06;;;;;;;24.50;3.53;;;9.20;99.90;;;;;;5081614;27;37383;-75
2022/01/30 11:34:37;;;;;;;17.83;3.53;;;9.30;99.90;;;;;;5081486;28;37741;-74
2022/01/30 11:37:05;;;;;;;25.17;4.50;;;9.40;99.90;;;;;;5078930;27;39191;-73
2022/01/30 11:39:32;;;;;;;29.40;4.43;;;9.30;99.90;;;;;;5081889;28;38373;-73
2022/01/30 11:42:20;;;;;;;23.27;3.90;;;9.20;99.90;;;;;;5082263;28;35918;-73
2022/01/30 11:45:06;;;;;;;26.40;4.80;;;9.00;99.90;;;;;;5083263;28;47006;-74
2022/01/30 11:48:03;;;;;;;24.73;4.70;;;8.90;99.90;;;;;;5076910;28;47213;-75
2022/01/30 11:50:34;;;;;;;31.33;4.30;;;8.90;99.90;;;;;;5076939;27;48673;-75
2022/01/30 11:53:27;;;;;;;21.47;3.90;;;9.00;99.90;;;;;;5081314;28;36279;-73
2022/01/30 11:56:00;;;;;;;23.60;4.15;;;9.10;99.90;;;;;;5087420;27;46969;-73
2022/01/30 11:58:35;;;;;;;;;;;9.10;99.90;;;;;;5084837;28;38712;-74
2022/01/30 12:01:35;;;;;;;30.03;4.80;;;8.80;99.90;;;;;;5077658;28;37275;-76
2022/01/30 12:04:10;;;;;;;22.17;3.73;;;8.70;99.90;;;;;;5077437;28;35662;-75
2022/01/30 12:06:38;;;;;;;25.70;4.70;;;8.70;99.90;;;;;;5085141;27;48333;-75
2022/01/30 12:09:20;;;;;;;26.33;3.53;;;8.70;99.90;;;;;;5079684;27;37963;-76
2022/01/30 12:11:49;;;;;;;24.90;3.83;;;8.70;99.90;;;;;;5082612;28;37968;-75
2022/01/30 12:14:20;;;;;;;32.77;5.03;;;8.50;99.90;;;;;;5080155;27;36504;-75
2022/01/30 12:16:46;;;;;;;26.90;5.23;;;8.40;99.90;;;;;;5074863;28;38238;-75
2022/01/30 12:19:16;;;;;;;18.53;3.77;;;8.30;99.90;;;;;;5082710;27;38286;-75
2022/01/30 12:21:43;;;;;;;26.63;4.73;;;8.40;99.90;;;;;;5080233;28;37911;-75
2022/01/30 12:24:24;;;;;;;18.07;2.90;;;8.60;99.90;;;;;;5084978;27;37035;-75
2022/01/30 12:26:52;;;;;;;20.87;3.50;;;8.70;99.90;;;;;;5079402;28;37737;-75
2022/01/30 12:29:38;;;;;;;30.37;4.67;;;8.90;99.90;;;;;;5081680;27;38361;-75
2022/01/30 12:32:22;;;;;;;26.87;4.07;;;9.30;99.90;;;;;;5081328;27;37168;-73
2022/01/30 12:34:54;;;;;;;20.77;4.23;;;9.60;99.90;;;;;;5081388;27;37378;-73
2022/01/30 12:37:29;;;;;;;25.60;4.00;;;9.50;99.90;;;;;;5091358;27;39528;-73
2022/01/30 12:39:57;;;;;;;23.93;4.27;;;9.50;99.90;;;;;;5083982;27;38445;-74
2022/01/30 12:42:26;;;;;;;28.30;5.47;;;9.50;99.90;;;;;;5082280;27;38176;-72
2022/01/30 12:44:58;;;;;;;20.93;4.17;;;9.40;99.90;;;;;;5080714;27;37362;-73
2022/01/30 12:47:24;;;;;;;26.23;4.03;;;9.30;99.90;;;;;;5081197;28;40773;-72
2022/01/30 12:49:53;;;;;;;23.20;4.30;;;9.40;99.90;;;;;;5081713;28;40308;-73
2022/01/30 12:52:34;;;;;;;18.80;4.10;;;9.30;99.90;;;;;;5085987;27;38283;-72
2022/01/30 12:55:07;;;;;;;19.57;4.30;;;9.40;99.90;;;;;;5084110;28;35615;-73
2022/01/30 12:57:34;;;;;;;21.53;5.00;;;9.70;99.90;;;;;;5077395;28;47328;-72
2022/01/30 13:00:01;;;;;;;24.73;4.53;;;9.80;99.90;;;;;;5082669;28;38345;-72
2022/01/30 13:02:29;;;;;;;23.17;4.27;;;10.00;99.90;;;;;;5078879;27;49645;-72
2022/01/30 13:04:59;;;;;;;22.30;4.63;;;9.80;99.90;;;;;;5085519;27;38186;-72
2022/01/30 13:07:25;;;;;;;20.47;4.00;;;9.80;99.90;;;;;;5084766;27;38885;-72
2022/01/30 13:10:02;;;;;;;27.53;4.30;;;9.60;99.90;;;;;;5082599;28;37058;-72
2022/01/30 13:12:31;;;;;;;20.07;3.47;;;9.60;99.90;;;;;;5083201;28;47662;-72
2022/01/30 13:14:57;;;;;;;27.87;4.87;;;9.50;99.90;;;;;;5084142;28;37294;-72
2022/01/30 13:17:28;;;;;;;26.60;4.97;;;9.40;99.90;;;;;;5083370;28;38667;-72
2022/01/30 13:19:55;;;;;;;17.07;3.60;;;9.60;99.90;;;;;;5082654;27;39421;-72
2022/01/30 13:22:36;;;;;;;22.60;4.23;;;9.70;99.90;;;;;;5082577;28;37520;-72
2022/01/30 13:25:05;;;;;;;29.37;4.93;;;9.90;99.90;;;;;;5084629;27;37195;-73
2022/01/30 13:27:31;;;;;;;23.00;3.70;;;9.80;99.90;;;;;;5084806;28;47564;-73
2022/01/30 13:29:57;;;;;;;24.70;3.83;;;9.50;99.90;;;;;;5086591;27;37981;-73
2022/01/30 13:32:28;;;;;;;24.47;4.03;;;9.30;99.90;;;;;;5081154;28;36925;-73
2022/01/30 13:34:57;;;;;;;25.03;4.43;;;9.10;99.90;;;;;;5084707;27;37432;-73
2022/01/30 13:37:24;;;;;;;28.73;3.93;;;9.00;99.90;;;;;;5082512;27;38768;-74
2022/01/30 13:40:12;;;;;;;23.53;4.60;;;9.00;99.90;;;;;;5083961;28;38111;-73
2022/01/30 13:48:18;;;;;;;29.23;4.13;;;9.00;99.90;;;;;;5087143;27;38901;-73
2022/01/30 13:51:05;;;;;;;15.57;3.35;;;9.10;99.90;;;;;;5084618;27;38410;-73
2022/01/30 13:53:35;;;;;;;24.27;4.23;;;9.10;99.90;;;;;;5084143;28;48312;-74
2022/01/30 13:56:07;;;;;;;22.77;3.67;;;8.90;99.90;;;;;;5085948;27;37278;-74